Historique des stations

Station météo de Véretz

Altitude de la station : 70 m







Données météorologiques pour le 01/07/2022
Date
Heure
Températures Humidité Point de rosée Vitesse
du vent
Direction Rafales Windchill Pression Pluviométrie
Cumul
Date
Heure
Températures Humidité Point de rosée Vitesse
du vent
Direction Rafales Windchill Pression Pluviométrie
Cumul
01/07/2022 22:5013.3 °C83 %10.6 °C---13.3 1021 hPa0.2 mm
01/07/2022 22:4513.4 °C83 %10.6 °C-SSO13 km/h13.3 1021 hPa0.2 mm
01/07/2022 22:3513.8 °C79 %10.0 °C---13.9 1021 hPa0.2 mm
01/07/2022 22:3014.2 °C78 %10.6 °C-SSO13 km/h14.4 1021 hPa0.2 mm
01/07/2022 22:1914.9 °C76 %10.6 °C---15.0 1021 hPa0.2 mm
01/07/2022 22:1514.8 °C77 %11.1 °C-SSO13 km/h15.0 1021 hPa0.2 mm
01/07/2022 22:0415.1 °C76 %11.1 °C---15.0 1020 hPa0.2 mm
01/07/2022 22:0015.4 °C73 %10.6 °C-SSO13 km/h15.6 1020 hPa0.2 mm
01/07/2022 21:4916.4 °C70 %11.1 °C---16.7 1020 hPa0.2 mm
01/07/2022 21:4516.8 °C69 %11.1 °C-SSO13 km/h16.7 1020 hPa0.2 mm
01/07/2022 21:3417.3 °C69 %11.7 °C---17.2 1020 hPa0.2 mm
01/07/2022 21:3017.3 °C69 %11.7 °C-SSO13 km/h17.2 1020 hPa0.2 mm
01/07/2022 21:1917.9 °C66 %11.7 °C---17.8 1020 hPa0.2 mm
01/07/2022 21:1518.1 °C67 %11.7 °C-SSO13 km/h18.3 1020 hPa0.2 mm
01/07/2022 21:0418.9 °C59 %10.6 °C---18.9 1020 hPa0.2 mm
01/07/2022 21:0019.0 °C58 %10.6 °C-SSO13 km/h18.9 1020 hPa0.2 mm
01/07/2022 20:4919.7 °C58 %11.1 °C---20.0 1020 hPa0.2 mm
01/07/2022 20:4520.1 °C52 %10.0 °C-SSO13 km/h20.0 1020 hPa0.2 mm
01/07/2022 20:3319.8 °C53 %10.0 °C---20.0 1020 hPa0.2 mm
01/07/2022 20:3020.0 °C52 %10.0 °C-SO13 km/h20.0 1020 hPa0.2 mm
01/07/2022 20:1820.3 °C53 %10.6 °C---20.6 1020 hPa0.2 mm
01/07/2022 20:1520.4 °C52 %10.0 °C-SO13 km/h20.6 1020 hPa0.2 mm
01/07/2022 20:0420.6 °C51 %10.0 °C---20.6 1020 hPa0.2 mm
01/07/2022 20:0020.4 °C54 %10.6 °C-SSO13 km/h20.6 1020 hPa0.2 mm
01/07/2022 19:4819.7 °C53 %10.0 °C---19.4 1020 hPa0.2 mm
01/07/2022 19:4419.5 °C54 %10.0 °C-SSO13 km/h19.4 1020 hPa0.2 mm
01/07/2022 19:3319.5 °C55 %10.0 °C---19.4 1020 hPa0.2 mm
01/07/2022 19:3019.6 °C56 %10.6 °C-OSO13 km/h19.4 1020 hPa0.2 mm
01/07/2022 19:1820.3 °C53 %10.6 °C---20.6 1020 hPa0.2 mm
01/07/2022 19:1520.4 °C51 %10.0 °C-O13 km/h20.6 1020 hPa0.2 mm
01/07/2022 19:0320.6 °C57 %11.7 °C---20.6 1020 hPa0.2 mm
01/07/2022 19:0020.6 °C59 %12.2 °C-O13 km/h20.6 1020 hPa0.2 mm
01/07/2022 18:4920.2 °C54 %10.6 °C---20.0 1020 hPa0.2 mm
01/07/2022 18:4420.3 °C57 %11.7 °C-O13 km/h20.6 1020 hPa0.2 mm
01/07/2022 18:3421.0 °C50 %10.0 °C---21.1 1020 hPa0.2 mm
01/07/2022 18:3020.5 °C53 %10.6 °C-OSO13 km/h20.6 1020 hPa0.2 mm
01/07/2022 18:1820.4 °C54 %10.6 °C---20.6 1020 hPa0.2 mm
01/07/2022 18:1520.5 °C51 %10.0 °C-ONO13 km/h20.6 1020 hPa0.2 mm
01/07/2022 18:0320.9 °C51 %10.6 °C---21.1 1020 hPa0.2 mm
01/07/2022 18:0020.9 °C51 %10.6 °C-NNO13 km/h21.1 1020 hPa0.2 mm
01/07/2022 17:4921.1 °C53 %11.1 °C---21.1 1020 hPa0.2 mm
01/07/2022 17:4520.9 °C50 %10.0 °C-NNO13 km/h21.1 1020 hPa0.2 mm
01/07/2022 17:3320.7 °C57 %11.7 °C---20.6 1020 hPa0.2 mm
01/07/2022 17:3020.6 °C54 %11.1 °C-NO13 km/h20.6 1020 hPa0.2 mm
01/07/2022 17:1820.2 °C54 %10.6 °C---20.0 1020 hPa0.2 mm
01/07/2022 17:1520.3 °C54 %10.6 °C-NO13 km/h20.6 1021 hPa0.2 mm
01/07/2022 17:0420.4 °C51 %10.0 °C---20.6 1021 hPa0.2 mm
01/07/2022 17:0020.5 °C55 %11.1 °C-OSO13 km/h20.6 1021 hPa0.2 mm
01/07/2022 16:4820.4 °C52 %10.0 °C---20.6 1021 hPa0.2 mm
01/07/2022 16:4520.4 °C55 %11.1 °C-O13 km/h20.6 1021 hPa0.2 mm
01/07/2022 16:3421.0 °C50 %10.0 °C-NO2 km/h21.1 1020 hPa0.2 mm
01/07/2022 16:3020.6 °C55 %11.1 °C-ONO13 km/h20.6 1020 hPa0.2 mm
01/07/2022 16:1920.2 °C52 %10.0 °C---20.0 1020 hPa0.2 mm
01/07/2022 16:1420.2 °C49 %8.9 °C-N13 km/h20.0 1020 hPa0.2 mm
01/07/2022 16:0220.9 °C47 %9.4 °C-OSO2 km/h21.1 1020 hPa0.2 mm
01/07/2022 16:0021.4 °C49 %10.0 °C-NNE13 km/h21.7 1020 hPa0.2 mm
01/07/2022 15:4821.8 °C55 %12.2 °C-ONO2 km/h21.7 1020 hPa0.2 mm
01/07/2022 15:4421.7 °C52 %11.7 °C-O13 km/h21.7 1020 hPa0.2 mm
01/07/2022 15:3320.4 °C56 %11.1 °C-O2 km/h20.6 1020 hPa0.2 mm
01/07/2022 15:3020.4 °C55 %11.1 °C-O13 km/h20.6 1020 hPa0.2 mm
01/07/2022 15:1921.1 °C56 %12.2 °C-N3 km/h21.1 1020 hPa-
01/07/2022 15:1520.5 °C55 %11.1 °C-OSO13 km/h20.6 1020 hPa-
01/07/2022 15:0320.2 °C53 %10.6 °C-N2 km/h20.0 1020 hPa-
01/07/2022 15:0020.6 °C55 %11.1 °C-ONO13 km/h20.6 1020 hPa-
01/07/2022 14:4921.6 °C53 %11.7 °C-NO5 km/h21.7 1020 hPa-
01/07/2022 14:4521.4 °C54 %11.7 °C-ONO13 km/h21.7 1020 hPa-
01/07/2022 14:3219.8 °C55 %10.6 °C---20.0 1020 hPa-
01/07/2022 14:3019.8 °C58 %11.1 °C-ONO13 km/h20.0 1020 hPa-
01/07/2022 14:1819.8 °C53 %10.0 °C---20.0 1020 hPa-
01/07/2022 14:1520.0 °C56 %11.1 °C-ONO13 km/h20.0 1020 hPa-
01/07/2022 14:0319.1 °C58 %10.6 °C-NO2 km/h18.9 1020 hPa-
01/07/2022 13:5919.2 °C58 %10.6 °C-ONO13 km/h19.4 1020 hPa-
01/07/2022 13:4820.1 °C55 %10.6 °C-N5 km/h20.0 1020 hPa-
01/07/2022 13:4519.9 °C53 %10.0 °C-NNE13 km/h20.0 1020 hPa-
01/07/2022 13:3320.8 °C54 %11.1 °C-NO6 km/h20.6 1020 hPa-
01/07/2022 13:3019.9 °C55 %10.6 °C-N13 km/h20.0 1020 hPa-
01/07/2022 13:1820.4 °C56 %11.1 °C-ONO2 km/h20.6 1020 hPa-
01/07/2022 13:1419.6 °C57 %11.1 °C-O13 km/h19.4 1020 hPa-
01/07/2022 13:0319.4 °C60 %11.7 °C-ONO8 km/h19.4 1020 hPa-
01/07/2022 13:0018.9 °C61 %11.1 °C-ONO13 km/h18.9 1020 hPa-
01/07/2022 12:4819.8 °C58 %11.1 °C-NNO5 km/h20.0 1020 hPa-
01/07/2022 12:4519.2 °C65 %12.2 °C-O13 km/h19.4 1020 hPa-
01/07/2022 12:3318.8 °C59 %10.6 °C-NNO2 km/h18.9 1020 hPa-
01/07/2022 12:3019.6 °C62 %12.2 °C-O13 km/h19.4 1020 hPa-
01/07/2022 12:1918.1 °C62 %10.6 °C-ONO2 km/h18.3 1020 hPa-
01/07/2022 12:1518.6 °C63 %11.1 °C-ONO13 km/h18.3 1020 hPa-
01/07/2022 12:0218.9 °C62 %11.7 °C-ONO5 km/h18.9 1020 hPa-
01/07/2022 12:0018.7 °C66 %12.2 °C-S13 km/h18.9 1020 hPa-
01/07/2022 11:4817.6 °C64 %10.6 °C-NO5 km/h17.8 1020 hPa-
01/07/2022 11:4417.9 °C65 %11.1 °C-NNO13 km/h17.8 1020 hPa-
01/07/2022 11:3318.1 °C66 %11.7 °C-O2 km/h18.3 1020 hPa-
01/07/2022 11:3018.3 °C67 %12.2 °C-ONO13 km/h18.3 1020 hPa-
01/07/2022 11:1818.1 °C66 %11.7 °C-ONO2 km/h18.3 1020 hPa-
01/07/2022 11:1517.6 °C68 %11.7 °C-NO13 km/h17.8 1020 hPa-
01/07/2022 11:0417.2 °C66 %10.6 °C-NNO8 km/h17.2 1020 hPa-
01/07/2022 11:0017.3 °C67 %11.1 °C-NNO13 km/h17.2 1020 hPa-
01/07/2022 10:4917.3 °C68 %11.1 °C-OSO8 km/h17.2 1020 hPa-
01/07/2022 10:4517.1 °C68 %11.1 °C-O13 km/h17.2 1020 hPa-
01/07/2022 10:3416.3 °C69 %10.6 °C-O6 km/h16.1 1020 hPa-
01/07/2022 10:3016.4 °C69 %10.6 °C-NO13 km/h16.7 1020 hPa-
01/07/2022 10:1915.8 °C72 %10.6 °C-ONO6 km/h15.6 1020 hPa-
01/07/2022 10:1515.5 °C73 %10.6 °C-O13 km/h15.6 1020 hPa-
01/07/2022 10:0315.6 °C74 %11.1 °C-OSO13 km/h15.6 1020 hPa-
01/07/2022 10:0015.4 °C74 %10.6 °C-O13 km/h15.6 1020 hPa-
01/07/2022 09:4915.1 °C75 %10.6 °C-ONO2 km/h15.0 1020 hPa-
01/07/2022 09:4515.0 °C75 %10.6 °C-NNO6 km/h15.0 1020 hPa-
01/07/2022 09:3414.6 °C77 %10.6 °C-NO2 km/h14.4 1020 hPa-
01/07/2022 09:3014.4 °C77 %10.6 °C-ONO6 km/h14.4 1020 hPa-
01/07/2022 09:1814.1 °C79 %10.6 °C---13.9 1020 hPa-
01/07/2022 09:1513.9 °C79 %10.6 °C-ONO6 km/h13.9 1020 hPa-
01/07/2022 09:0313.4 °C81 %10.0 °C---13.3 1020 hPa-
01/07/2022 09:0013.3 °C82 %10.6 °C-O6 km/h13.3 1020 hPa-
01/07/2022 08:4812.9 °C85 %10.6 °C---12.8 1020 hPa-
01/07/2022 08:4512.7 °C85 %10.0 °C-SO6 km/h12.8 1020 hPa-
01/07/2022 08:3312.1 °C87 %10.0 °C-ONO2 km/h12.2 1020 hPa-
01/07/2022 08:3112.1 °C87 %10.0 °C-OSO6 km/h12.2 1020 hPa-
01/07/2022 08:1711.6 °C89 %10.0 °C---11.7 1020 hPa-
01/07/2022 08:1511.4 °C89 %9.4 °C-O6 km/h11.7 1020 hPa-
01/07/2022 08:0210.9 °C90 %9.4 °C---11.1 1020 hPa-
01/07/2022 08:0010.8 °C91 %9.4 °C-NNO6 km/h10.6 1020 hPa-
01/07/2022 07:4810.4 °C91 %8.9 °C---10.6 1020 hPa-
01/07/2022 07:4510.2 °C92 %8.9 °C-NNE6 km/h10.0 1020 hPa-
01/07/2022 07:339.6 °C91 %8.3 °C---9.4 1019 hPa-
01/07/2022 07:309.5 °C91 %8.3 °C-O6 km/h9.4 1019 hPa-
01/07/2022 07:179.0 °C92 %7.8 °C---8.9 1020 hPa-
01/07/2022 07:158.8 °C91 %7.2 °C-O6 km/h8.9 1019 hPa-
01/07/2022 07:028.5 °C91 %7.2 °C---8.3 1019 hPa-
01/07/2022 07:008.3 °C91 %7.2 °C-O6 km/h8.3 1019 hPa-
01/07/2022 06:487.8 °C91 %6.7 °C---7.8 1019 hPa-
01/07/2022 06:457.8 °C91 %6.7 °C-O6 km/h7.8 1019 hPa-
01/07/2022 06:327.6 °C91 %6.1 °C---7.8 1020 hPa-
01/07/2022 06:307.6 °C91 %6.1 °C-O6 km/h7.8 1020 hPa-
01/07/2022 06:187.3 °C91 %6.1 °C---7.2 1019 hPa-
01/07/2022 06:157.3 °C91 %6.1 °C-O6 km/h7.2 1019 hPa-
01/07/2022 06:027.4 °C90 %6.1 °C---7.2 1019 hPa-
01/07/2022 06:007.4 °C90 %6.1 °C-O6 km/h7.2 1019 hPa-
01/07/2022 05:487.7 °C90 %6.1 °C---7.8 1019 hPa-
01/07/2022 05:457.8 °C90 %6.1 °C-O6 km/h7.8 1019 hPa-
01/07/2022 05:327.8 °C90 %6.1 °C---7.8 1019 hPa-
01/07/2022 05:307.7 °C90 %6.1 °C-OSO6 km/h7.8 1019 hPa-
01/07/2022 05:177.6 °C90 %6.1 °C---7.8 1019 hPa-
01/07/2022 05:157.6 °C90 %6.1 °C-O6 km/h7.8 1019 hPa-
01/07/2022 05:027.8 °C90 %6.1 °C---7.8 1019 hPa-
01/07/2022 05:007.8 °C90 %6.1 °C-O6 km/h7.8 1019 hPa-
01/07/2022 04:477.8 °C89 %6.1 °C---7.8 1019 hPa-
01/07/2022 04:457.9 °C89 %6.1 °C-O6 km/h7.8 1019 hPa-
01/07/2022 04:328.2 °C89 %6.7 °C---8.3 1019 hPa-
01/07/2022 04:308.3 °C89 %6.7 °C-O6 km/h8.3 1019 hPa-
01/07/2022 04:188.5 °C89 %6.7 °C---8.3 1019 hPa-
01/07/2022 04:158.5 °C88 %6.7 °C-O6 km/h8.3 1018 hPa-
01/07/2022 04:028.8 °C88 %7.2 °C---8.9 1018 hPa-
01/07/2022 03:598.9 °C88 %7.2 °C-O6 km/h8.9 1018 hPa-
01/07/2022 03:479.3 °C87 %7.2 °C---9.4 1018 hPa-
01/07/2022 03:459.4 °C86 %7.2 °C-O6 km/h9.4 1018 hPa-
01/07/2022 03:329.5 °C85 %7.2 °C---9.4 1018 hPa-
01/07/2022 03:309.6 °C85 %7.2 °C-O6 km/h9.4 1018 hPa-
01/07/2022 03:1810.2 °C83 %7.2 °C---10.0 1018 hPa-
01/07/2022 03:1510.4 °C83 %7.8 °C-O6 km/h10.6 1018 hPa-
01/07/2022 03:0210.8 °C83 %7.8 °C---10.6 1018 hPa-
01/07/2022 03:0010.8 °C82 %7.8 °C-O6 km/h10.6 1018 hPa-
01/07/2022 02:4711.1 °C81 %7.8 °C---11.1 1018 hPa-
01/07/2022 02:4511.2 °C81 %8.3 °C-O6 km/h11.1 1018 hPa-
01/07/2022 02:3211.5 °C80 %8.3 °C---11.7 1018 hPa-
01/07/2022 02:3011.5 °C80 %8.3 °C-O6 km/h11.7 1018 hPa-
01/07/2022 02:1811.5 °C81 %8.3 °C---11.7 1018 hPa-
01/07/2022 02:1511.5 °C81 %8.3 °C-ONO6 km/h11.7 1018 hPa-
01/07/2022 02:0211.6 °C81 %8.3 °C---11.7 1018 hPa-
01/07/2022 02:0111.6 °C81 %8.3 °C-ONO6 km/h11.7 1018 hPa-
01/07/2022 01:4611.4 °C80 %8.3 °C---11.7 1018 hPa-
01/07/2022 01:4511.4 °C80 %8.3 °C-ONO6 km/h11.7 1018 hPa-
01/07/2022 01:3211.9 °C79 %8.3 °C---12.2 1018 hPa-
01/07/2022 01:2912.1 °C78 %8.3 °C-NO6 km/h12.2 1018 hPa-
01/07/2022 01:1712.4 °C77 %8.3 °C-NO3 km/h12.2 1018 hPa-
01/07/2022 01:1512.4 °C76 %8.3 °C-NO6 km/h12.2 1018 hPa-
01/07/2022 01:0212.5 °C76 %8.3 °C-O6 km/h12.8 1018 hPa-
01/07/2022 01:0012.5 °C76 %8.3 °C-O6 km/h12.8 1018 hPa-
01/07/2022 00:4712.4 °C76 %8.3 °C-O2 km/h12.2 1018 hPa-
01/07/2022 00:4512.4 °C76 %8.3 °C-O2 km/h12.2 1018 hPa-
01/07/2022 00:3312.5 °C76 %8.3 °C-O2 km/h12.8 1018 hPa-
01/07/2022 00:3012.6 °C76 %8.3 °C-O2 km/h12.8 1018 hPa-
01/07/2022 00:1712.7 °C75 %8.3 °C---12.8 1018 hPa-
01/07/2022 00:1512.8 °C75 %8.3 °C---12.8 1017 hPa-
01/07/2022 00:0213.1 °C74 %8.3 °C---13.3 1017 hPa-
01/07/2022 00:0013.1 °C74 %8.3 °C-O14 km/h13.3 1017 hPa9.6 mm


Minima :

Température : 7.3 °C
Humidité : 47 %
Point de rosée : 6.1 °C
Vent moyen : - km/h
Windchill : 7.2
Pression atm. : 1017 hPa
Maxima :

Température : 21.8 °C
Humidité : 92 %
Point de rosée : 12.2 °C
Vent moyen : 0 km/h
Windchill : 21.7
Pression atm. : 1021 hPa
Rafales max : 14 km/h
Cumul de pluie sur 24H : 9.6 mm

Véretz est une commune du département Indre-et-Loire (37).
La station météorologique du réseau de l'association la plus proche de Véretz est celle de Reugny
Site du propriétaire de la station : http://www.meteo-veretz.fr/



Icône Facebook Association Météo Centre Icône Twitter Association Météo Centre Icône Chaîne Youtube Association Météo Centre Icône contact Association Météo Centre Icône Insta Association Météo Centre